Time;durP1;ratioP1;P1;durP2;ratioP2;P2;SDS_P1;SDS_P2;PMS_P1;PMS_P2;Temp;Humidity;BMP_temperature;BMP_pressure;BME280_temperature;BME280_humidity;BME280_pressure;Samples;Min_cycle;Max_cycle;Signal;HPM_P1;HPM_P2
2022/06/19 00:02:53;;;;;;;4.07;2.22;;;;;;;21.70;57.98;99779.44;10302594;28;20052;-78
2022/06/19 00:07:57;;;;;;;6.40;2.40;;;;;;;21.63;58.00;99768.50;10326189;28;20348;-79
2022/06/19 00:13:00;;;;;;;6.68;2.67;;;;;;;21.58;57.80;99745.59;10335340;28;20060;-78
2022/06/19 00:18:04;;;;;;;7.57;2.78;;;;;;;21.49;57.86;99719.56;10316107;28;20046;-79
2022/06/19 00:23:13;;;;;;;6.80;2.97;;;;;;;21.40;58.51;99717.03;10310959;28;20046;-79
2022/06/19 00:28:16;;;;;;;4.28;2.08;;;;;;;21.39;58.61;99734.50;10336906;28;20058;-79
2022/06/19 00:33:20;;;;;;;3.78;3.05;;;;;;;21.24;58.81;99725.66;10340367;28;20538;-79
2022/06/19 00:38:23;;;;;;;3.92;2.58;;;;;;;21.05;59.03;99716.41;10312439;28;20049;-79
2022/06/19 00:43:27;;;;;;;4.50;3.03;;;;;;;20.99;59.35;99712.59;10337025;28;20057;-79
2022/06/19 00:48:36;;;;;;;4.32;2.65;;;;;;;20.81;59.91;99706.06;10305187;28;20483;-79
2022/06/19 00:53:45;;;;;;;7.90;3.20;;;;;;;20.75;59.99;99703.13;10330310;28;20053;-79
2022/06/19 00:58:52;;;;;;;5.13;2.90;;;;;;;20.57;60.63;99694.72;10336172;28;21192;-79
2022/06/19 01:04:00;;;;;;;4.63;2.85;;;;;;;20.67;60.25;99692.41;10339148;28;20104;-79
2022/06/19 01:09:03;;;;;;;3.40;3.05;;;;;;;20.55;60.51;99685.88;10324577;28;20042;-78
2022/06/19 01:14:10;;;;;;;4.07;3.50;;;;;;;20.46;60.87;99671.59;10328364;28;20049;-79
2022/06/19 01:19:23;;;;;;;6.68;2.95;;;;;;;20.39;61.13;99662.56;10311661;28;20050;-79
2022/06/19 01:24:35;;;;;;;3.10;2.88;;;;;;;20.41;61.09;99657.75;10321279;28;21274;-78
2022/06/19 01:29:39;;;;;;;3.97;3.00;;;;;;;20.34;61.49;99646.78;10300680;28;20125;-80
2022/06/19 01:34:42;;;;;;;4.25;2.58;;;;;;;20.21;61.80;99638.53;10325010;28;20452;-80
2022/06/19 01:39:49;;;;;;;5.28;3.08;;;;;;;20.16;62.03;99626.56;10323661;28;20058;-79
2022/06/19 01:44:54;;;;;;;4.60;2.83;;;;;;;20.13;61.52;99625.97;10330710;28;20038;-78
2022/06/19 01:50:00;;;;;;;5.40;3.38;;;;;;;20.08;61.89;99606.66;10321683;28;20050;-80
2022/06/19 01:55:08;;;;;;;6.10;3.60;;;;;;;19.99;62.16;99607.88;10327130;28;20057;-80
2022/06/19 02:00:17;;;;;;;4.85;2.67;;;;;;;19.98;61.82;99605.38;10296707;28;20134;-80
2022/06/19 02:05:20;;;;;;;3.45;3.13;;;;;;;19.78;62.26;99610.75;10327587;28;20050;-79
2022/06/19 02:10:23;;;;;;;5.95;2.95;;;;;;;19.74;62.16;99607.56;10321850;28;20534;-80
2022/06/19 02:15:28;;;;;;;6.18;3.53;;;;;;;19.49;62.57;99618.09;10314383;28;20154;-79
2022/06/19 02:20:31;;;;;;;5.00;3.20;;;;;;;19.42;62.64;99609.91;10307649;28;20051;-81
2022/06/19 02:25:35;;;;;;;4.40;3.45;;;;;;;19.45;62.43;99600.50;10330707;28;20046;-79
2022/06/19 02:30:41;;;;;;;4.57;2.80;;;;;;;19.38;62.61;99599.59;10280825;28;20053;-79
2022/06/19 02:35:44;;;;;;;6.40;3.55;;;;;;;19.33;62.71;99592.03;10327794;28;20050;-79
2022/06/19 02:40:57;;;;;;;3.67;2.80;;;;;;;19.18;62.87;99578.56;10333650;28;20057;-80
2022/06/19 02:46:05;;;;;;;3.63;3.08;;;;;;;19.25;62.52;99575.84;10336231;28;21238;-79
2022/06/19 02:51:09;;;;;;;3.85;2.65;;;;;;;19.16;62.42;99586.06;10291274;28;20050;-80
2022/06/19 02:56:11;;;;;;;5.63;3.22;;;;;;;18.95;62.47;99580.69;10312828;28;20089;-79
2022/06/19 03:01:16;;;;;;;3.72;2.78;;;;;;;18.80;62.65;99587.09;10340441;28;20050;-80
2022/06/19 03:06:19;;;;;;;5.45;2.60;;;;;;;18.70;62.71;99583.00;10339648;28;20054;-80
2022/06/19 03:11:21;;;;;;;5.38;2.60;;;;;;;18.62;62.82;99567.66;10334022;28;20491;-80
2022/06/19 03:16:26;;;;;;;3.72;2.72;;;;;;;18.56;62.45;99541.25;10323405;28;20504;-80
2022/06/19 03:21:29;;;;;;;9.20;2.67;;;;;;;18.55;62.58;99524.09;10315754;28;20054;-79
2022/06/19 03:26:32;;;;;;;6.93;2.88;;;;;;;18.63;62.52;99516.84;10317018;28;20050;-80
2022/06/19 03:31:37;;;;;;;4.05;2.30;;;;;;;18.69;62.46;99510.59;10318090;28;20050;-80
2022/06/19 03:36:40;;;;;;;5.30;2.60;;;;;;;18.74;62.29;99494.53;10315568;28;20053;-79
2022/06/19 03:41:43;;;;;;;3.65;2.60;;;;;;;18.74;62.35;99487.19;10312268;28;20046;-79
2022/06/19 03:46:47;;;;;;;3.05;2.75;;;;;;;18.71;62.38;99501.19;10302128;28;20050;-79
2022/06/19 03:51:50;;;;;;;5.05;2.40;;;;;;;18.07;64.66;99567.38;10305201;28;20050;-79
2022/06/19 03:56:54;;;;;;;5.43;2.55;;;;;;;18.29;63.03;99537.44;10308556;28;20637;-80
2022/06/19 04:01:58;;;;;;;5.70;2.47;;;;;;;18.18;63.08;99538.81;10302460;28;20058;-81
2022/06/19 04:07:01;;;;;;;4.53;1.95;;;;;;;18.29;62.30;99519.28;10322340;28;20081;-79
2022/06/19 04:12:05;;;;;;;7.22;2.47;;;;;;;18.00;61.93;99541.16;10331970;28;20165;-80
2022/06/19 04:17:09;;;;;;;5.97;2.38;;;;;;;18.24;60.55;99540.78;10323140;28;20080;-80
2022/06/19 04:22:12;;;;;;;5.90;1.73;;;;;;;18.20;60.19;99561.22;10325323;28;20156;-79
2022/06/19 04:27:15;;;;;;;5.30;1.85;;;;;;;18.20;59.56;99572.09;10338387;28;20050;-79
2022/06/19 04:32:20;;;;;;;6.40;2.92;;;;;;;18.23;58.70;99582.56;10343719;28;20069;-79
2022/06/19 04:37:23;;;;;;;4.78;1.88;;;;;;;18.17;58.29;99588.78;10337867;28;20050;-79
2022/06/19 04:42:26;;;;;;;7.60;1.95;;;;;;;18.10;57.45;99585.13;10369195;28;20080;-79
2022/06/19 04:47:30;;;;;;;7.00;2.00;;;;;;;18.06;57.59;99602.88;10321125;28;20053;-79
2022/06/19 04:52:33;;;;;;;8.20;2.60;;;;;;;18.00;56.84;99628.94;10340797;28;20111;-79
2022/06/19 04:57:36;;;;;;;8.93;2.40;;;;;;;17.77;56.96;99652.63;10311252;28;20054;-79
2022/06/19 05:02:40;;;;;;;16.00;3.05;;;;;;;17.70;56.52;99626.25;10326232;28;20050;-80
2022/06/19 05:07:44;;;;;;;13.30;2.72;;;;;;;17.75;56.17;99631.13;10335451;28;20052;-79
2022/06/19 05:12:47;;;;;;;15.07;3.00;;;;;;;17.37;56.24;99608.66;10326136;28;20057;-81
2022/06/19 05:17:51;;;;;;;15.05;2.85;;;;;;;17.74;56.04;99632.13;10325982;28;20695;-79
2022/06/19 05:22:54;;;;;;;12.23;3.15;;;;;;;17.87;55.53;99669.50;10312993;28;20054;-80
2022/06/19 05:27:57;;;;;;;13.13;3.05;;;;;;;17.77;55.61;99685.22;10329676;28;20062;-80
2022/06/19 05:33:01;;;;;;;17.90;3.63;;;;;;;17.74;55.23;99663.88;10314929;28;20051;-80
2022/06/19 05:38:04;;;;;;;18.67;3.35;;;;;;;17.63;54.65;99668.75;10333183;28;20513;-80
2022/06/19 05:43:07;;;;;;;12.88;2.72;;;;;;;17.67;54.72;99701.81;10324885;28;20064;-80
2022/06/19 05:48:11;;;;;;;16.52;2.60;;;;;;;17.78;53.58;99674.19;10326819;28;20050;-80
2022/06/19 05:53:14;;;;;;;17.13;3.03;;;;;;;17.73;52.77;99671.19;10285378;28;20046;-80
2022/06/19 05:58:17;;;;;;;14.88;2.83;;;;;;;17.61;53.23;99689.00;10308422;28;20056;-80
2022/06/19 06:03:23;;;;;;;10.10;2.15;;;;;;;17.84;52.16;99670.72;10305574;28;20073;-80
2022/06/19 06:08:26;;;;;;;12.35;2.70;;;;;;;17.93;50.99;99657.88;10313151;28;20050;-81
2022/06/19 06:13:30;;;;;;;10.18;3.03;;;;;;;18.00;50.03;99638.97;10331563;28;20041;-80
2022/06/19 06:18:34;;;;;;;17.23;2.92;;;;;;;18.08;50.09;99650.56;10314041;28;20049;-80
2022/06/19 06:23:37;;;;;;;11.90;2.67;;;;;;;18.41;49.45;99695.47;10318469;28;20049;-80
2022/06/19 06:28:42;;;;;;;15.82;2.70;;;;;;;18.35;48.51;99638.13;10315634;28;20062;-79
2022/06/19 06:33:49;;;;;;;13.38;2.85;;;;;;;18.64;48.24;99639.00;10327587;28;20049;-80
2022/06/19 06:38:55;;;;;;;12.35;2.80;;;;;;;19.03;47.39;99664.91;10320852;28;20042;-81
2022/06/19 06:43:58;;;;;;;13.38;2.80;;;;;;;19.23;47.36;99675.97;10315403;28;20058;-81
2022/06/19 06:49:04;;;;;;;19.40;3.78;;;;;;;19.43;46.52;99676.94;10301741;28;20138;-81
2022/06/19 07:01:16;;;;;;;6.93;2.17;;;;;;;19.90;45.62;99630.91;10329832;28;20041;-82
2022/06/19 07:06:20;;;;;;;7.80;2.70;;;;;;;20.36;44.94;99646.59;10302778;28;20060;-82
2022/06/19 07:11:25;;;;;;;10.90;2.60;;;;;;;20.78;44.39;99636.38;10316639;28;20124;-83
2022/06/19 07:16:28;;;;;;;14.40;2.65;;;;;;;21.66;42.99;99625.97;10295276;28;20052;-83
2022/06/19 07:21:33;;;;;;;12.90;2.70;;;;;;;23.05;40.84;99615.28;10297768;28;20049;-83
2022/06/19 07:26:36;;;;;;;13.00;2.63;;;;;;;25.39;36.53;99589.03;10302133;28;20090;-83
2022/06/19 07:31:39;;;;;;;11.23;2.67;;;;;;;27.15;34.83;99568.94;10300872;28;20143;-79
2022/06/19 07:36:43;;;;;;;11.32;2.63;;;;;;;28.19;32.71;99556.19;10281273;28;20136;-79
2022/06/19 07:41:46;;;;;;;11.70;2.53;;;;;;;28.04;33.16;99573.44;10307911;28;20054;-81
2022/06/19 07:52:11;;;;;;;9.70;2.75;;;;;;;27.90;33.09;99678.94;10325018;28;20045;-81
2022/06/19 07:57:14;;;;;;;11.52;2.72;;;;;;;26.94;34.78;99668.94;10312269;28;20050;-80
2022/06/19 08:02:18;;;;;;;10.18;2.83;;;;;;;25.81;36.12;99685.97;10306403;28;20192;-82
2022/06/19 08:07:23;;;;;;;8.40;3.08;;;;;;;24.47;37.31;99678.25;10323746;28;20050;-81
2022/06/19 08:12:26;;;;;;;8.13;2.35;;;;;;;23.63;39.29;99710.84;10328714;28;20131;-81
2022/06/19 08:17:29;;;;;;;9.88;2.55;;;;;;;24.21;38.43;99693.13;10334372;28;20588;-81
2022/06/19 08:22:33;;;;;;;8.50;2.28;;;;;;;24.48;38.00;99690.06;10303120;28;20095;-81
2022/06/19 08:27:37;;;;;;;6.28;2.22;;;;;;;23.94;38.50;99739.22;10313527;28;20081;-81
2022/06/19 08:32:40;;;;;;;12.90;2.20;;;;;;;24.23;37.73;99743.13;10305546;28;21937;-81
2022/06/19 08:37:47;;;;;;;7.18;2.53;;;;;;;23.52;37.98;99760.94;10322750;28;20480;-79
2022/06/19 08:43:03;;;;;;;12.40;2.60;;;;;;;23.78;38.33;99794.66;10310395;28;20049;-82
2022/06/19 08:48:26;;;;;;;10.52;2.15;;;;;;;23.10;38.62;99839.22;10313765;28;20513;-79
2022/06/19 08:53:47;;;;;;;9.13;2.22;;;;;;;23.00;38.47;99878.84;10302710;28;20132;-81
2022/06/19 08:58:57;;;;;;;6.40;1.80;;;;;;;22.75;39.94;99878.75;10329329;28;20478;-81
2022/06/19 09:09:45;;;;;;;14.95;2.67;;;;;;;24.64;36.63;99845.91;10293471;28;20136;-80
2022/06/19 09:15:01;;;;;;;5.72;2.13;;;;;;;24.42;37.19;99872.97;10306957;28;20050;-81
2022/06/19 09:20:10;;;;;;;6.00;2.13;;;;;;;24.90;37.41;99865.84;10338387;28;20649;-82
2022/06/19 09:25:32;;;;;;;8.02;2.38;;;;;;;24.52;37.91;99867.78;10321023;28;20346;-81
2022/06/19 09:30:40;;;;;;;7.93;2.10;;;;;;;22.67;40.89;99872.69;10317125;28;20058;-81
2022/06/19 09:35:46;;;;;;;7.47;2.35;;;;;;;23.87;39.35;99883.81;10303391;28;20116;-80
2022/06/19 09:40:58;;;;;;;6.82;2.33;;;;;;;24.02;38.74;99875.25;10333900;28;21361;-80
2022/06/19 09:46:06;;;;;;;11.32;2.53;;;;;;;23.86;39.57;99904.06;10330996;28;20065;-85
2022/06/19 09:51:13;;;;;;;11.73;2.88;;;;;;;24.09;39.19;99903.47;10318671;28;20057;-82
2022/06/19 09:56:24;;;;;;;8.20;2.72;;;;;;;24.88;39.16;99893.56;10333149;28;20050;-82
2022/06/19 10:01:28;;;;;;;10.85;2.53;;;;;;;25.10;38.38;99893.94;10322427;28;20459;-83
2022/06/19 10:06:39;;;;;;;7.45;2.22;;;;;;;26.24;36.43;99895.78;10318838;28;20120;-81
2022/06/19 10:11:45;;;;;;;9.25;1.90;;;;;;;26.78;35.66;99888.16;10307307;28;20482;-82
2022/06/19 10:16:51;;;;;;;9.35;2.50;;;;;;;24.36;39.58;99887.59;10317058;28;20117;-82
2022/06/19 10:22:16;;;;;;;10.77;2.42;;;;;;;23.51;40.21;99889.97;10303021;28;20377;-81
2022/06/19 10:27:33;;;;;;;8.77;2.53;;;;;;;23.33;41.55;99877.84;10332186;28;20045;-83
2022/06/19 10:32:51;;;;;;;7.82;1.77;;;;;;;25.84;37.17;99839.53;10321530;28;20619;-83
2022/06/19 10:38:06;;;;;;;7.40;2.38;;;;;;;26.75;35.52;99822.56;10304260;28;20046;-81
2022/06/19 10:43:29;;;;;;;6.10;2.20;;;;;;;27.01;35.10;99823.06;10294963;28;20049;-82
2022/06/19 10:48:41;;;;;;;9.45;2.33;;;;;;;27.22;34.91;99810.50;10323249;28;20046;-81
2022/06/19 10:54:06;;;;;;;11.02;3.42;;;;;;;27.63;34.55;99765.16;10317444;28;20042;-81
2022/06/19 10:59:13;;;;;;;9.07;2.22;;;;;;;27.52;34.45;99753.16;10321928;28;21066;-81
2022/06/19 11:04:18;;;;;;;9.00;2.03;;;;;;;27.10;34.73;99756.28;10324802;28;20051;-81
2022/06/19 11:09:24;;;;;;;10.13;2.20;;;;;;;25.85;35.67;99736.66;10338037;28;20089;-82
2022/06/19 11:14:34;;;;;;;13.68;3.28;;;;;;;25.76;36.73;99746.38;10327867;28;20138;-83
2022/06/19 11:19:41;;;;;;;7.38;2.15;;;;;;;24.82;38.05;99754.41;10317275;28;20042;-81
2022/06/19 11:24:46;;;;;;;7.93;1.83;;;;;;;26.03;35.86;99732.94;10320807;28;20503;-82
2022/06/19 11:29:53;;;;;;;11.55;2.22;;;;;;;26.57;36.23;99746.44;10324905;28;20042;-82
2022/06/19 11:35:01;;;;;;;9.18;2.10;;;;;;;26.91;34.70;99752.09;10305659;28;20062;-82
2022/06/19 11:40:15;;;;;;;10.13;2.35;;;;;;;27.04;33.44;99770.22;10304838;28;20054;-81
2022/06/19 11:45:27;;;;;;;6.30;2.20;;;;;;;26.60;34.43;99775.41;10318829;28;20512;-82
2022/06/19 11:50:44;;;;;;;6.32;1.90;;;;;;;26.19;36.53;99796.53;10331736;28;21254;-81
2022/06/19 11:55:49;;;;;;;5.43;2.08;;;;;;;26.43;37.21;99723.88;10321603;28;20042;-81
2022/06/19 12:01:00;;;;;;;6.65;2.10;;;;;;;27.27;35.00;99661.72;10311766;28;20499;-82
2022/06/19 12:06:07;;;;;;;6.90;1.88;;;;;;;27.10;34.44;99706.69;10335070;28;20132;-82
2022/06/19 12:11:11;;;;;;;9.00;2.40;;;;;;;27.69;33.80;99727.47;10334691;28;20046;-82
2022/06/19 12:16:21;;;;;;;6.45;2.25;;;;;;;27.80;34.05;99723.75;10324748;28;20058;-82
2022/06/19 12:21:28;;;;;;;5.78;1.98;;;;;;;27.68;34.97;99712.00;10331453;28;20408;-82
2022/06/19 12:26:36;;;;;;;9.70;2.40;;;;;;;28.86;33.66;99704.09;10338751;28;20511;-83
2022/06/19 12:31:42;;;;;;;6.22;2.25;;;;;;;28.62;33.30;99702.75;10313305;28;20116;-82
2022/06/19 12:36:45;;;;;;;7.22;2.28;;;;;;;29.34;32.30;99718.88;10322206;28;20106;-82
2022/06/19 12:41:56;;;;;;;6.38;2.35;;;;;;;29.78;32.18;99738.03;10323644;28;20053;-82
2022/06/19 12:47:12;;;;;;;5.43;2.13;;;;;;;30.38;31.56;99737.81;10322546;28;20061;-82
2022/06/19 12:52:35;;;;;;;9.70;2.45;;;;;;;29.28;32.50;99757.84;10320778;28;20046;-79
2022/06/19 12:57:56;;;;;;;6.63;2.40;;;;;;;28.33;33.75;99773.91;10301667;28;20069;-79
2022/06/19 13:03:30;;;;;;;7.28;2.40;;;;;;;28.99;34.30;99794.06;10311725;28;20152;-79
2022/06/19 13:08:40;;;;;;;8.18;2.30;;;;;;;29.99;32.27;99797.13;10311647;28;20097;-80
2022/06/19 13:14:01;;;;;;;8.02;3.15;;;;;;;29.36;32.88;99796.91;10319990;28;20050;-80
2022/06/19 13:19:15;;;;;;;6.30;2.47;;;;;;;27.68;35.59;99798.34;10320141;28;20534;-79
2022/06/19 13:24:30;;;;;;;6.18;2.10;;;;;;;28.16;35.41;99802.41;10316042;28;20345;-80
2022/06/19 13:29:47;;;;;;;8.18;2.63;;;;;;;27.96;35.28;99805.72;10319291;28;20083;-80
2022/06/19 13:35:09;;;;;;;7.45;2.50;;;;;;;26.92;36.58;99823.47;10315021;28;20137;-80
2022/06/19 13:40:18;;;;;;;7.27;2.20;;;;;;;27.65;35.34;99834.72;10315163;28;20042;-80
2022/06/19 13:45:38;;;;;;;7.70;2.00;;;;;;;27.63;35.02;99850.69;10314085;28;20065;-80
2022/06/19 13:50:50;;;;;;;6.47;2.42;;;;;;;27.50;33.32;99862.03;10313646;28;20404;-80
2022/06/19 13:56:01;;;;;;;7.25;1.67;;;;;;;26.65;34.45;99903.03;10334868;28;20046;-81
2022/06/19 14:01:18;;;;;;;9.77;3.50;;;;;;;26.14;35.45;99921.13;10324397;28;20401;-81
2022/06/19 14:06:28;;;;;;;9.43;1.67;;;;;;;26.04;36.17;99934.63;10321870;28;20784;-80
2022/06/19 14:12:03;;;;;;;11.00;2.30;;;;;;;26.88;34.91;99942.69;10316494;28;20046;-79
2022/06/19 14:17:01;;;;;;;6.97;2.20;;;;;;;27.46;34.57;99947.19;10319274;28;20050;-77
2022/06/19 14:22:24;;;;;;;6.70;2.05;;;;;;;26.86;35.43;99948.44;10295660;28;20132;-78
2022/06/19 14:27:48;;;;;;;7.25;2.20;;;;;;;26.35;36.49;99965.69;10322828;28;20050;-78
2022/06/19 14:32:54;;;;;;;6.20;1.88;;;;;;;26.08;37.54;99990.88;10322640;28;20053;-79
2022/06/19 14:38:34;;;;;;;7.60;2.13;;;;;;;25.82;37.88;99992.97;10320903;28;20096;-79
2022/06/19 14:43:52;;;;;;;9.45;1.80;;;;;;;25.79;37.79;99984.34;10308703;28;20073;-79
2022/06/19 14:49:36;;;;;;;10.50;2.67;;;;;;;25.34;38.50;99981.97;10317214;28;20055;-79
2022/06/19 14:54:52;;;;;;;5.75;1.60;;;;;;;26.77;36.87;99982.06;10312912;28;20046;-79
2022/06/19 14:59:58;;;;;;;6.43;1.55;;;;;;;25.81;36.87;99979.47;10328966;28;20507;-79
2022/06/19 15:05:08;;;;;;;6.80;1.83;;;;;;;26.93;34.78;99960.19;10323160;28;20149;-78
2022/06/19 15:10:22;;;;;;;5.00;1.38;;;;;;;26.79;35.18;99963.38;10325216;28;20050;-79
2022/06/19 15:15:26;;;;;;;4.93;1.63;;;;;;;27.23;33.99;99958.28;10325070;28;20037;-80
2022/06/19 15:20:42;;;;;;;3.55;1.20;;;;;;;27.41;33.19;99985.72;10332675;28;20093;-79
2022/06/19 15:25:48;;;;;;;5.63;1.60;;;;;;;27.26;34.18;99997.25;10322066;28;20049;-79
2022/06/19 15:30:51;;;;;;;5.43;1.27;;;;;;;27.38;33.96;100002.72;10353788;28;20050;-79
2022/06/19 15:36:05;;;;;;;4.28;1.30;;;;;;;26.84;35.00;100004.84;10329913;28;20042;-79
2022/06/19 15:41:46;;;;;;;3.90;1.42;;;;;;;27.03;35.05;100013.81;10334982;28;20124;-79
2022/06/19 15:47:12;;;;;;;6.43;1.33;;;;;;;26.71;34.89;100017.78;10332551;28;20085;-78
2022/06/19 15:52:17;;;;;;;4.10;2.10;;;;;;;25.46;37.09;100037.03;10314332;28;20045;-78
2022/06/19 15:57:23;;;;;;;5.38;2.25;;;;;;;24.62;38.55;100031.97;10314997;28;20062;-79
2022/06/19 16:02:30;;;;;;;5.22;1.70;;;;;;;24.62;38.43;100039.38;10325329;28;20057;-79
2022/06/19 16:07:44;;;;;;;9.07;2.28;;;;;;;25.12;38.55;100028.31;10318405;28;20054;-79
2022/06/19 16:12:51;;;;;;;3.83;1.60;;;;;;;26.44;36.53;100022.06;10308523;28;20050;-79
2022/06/19 16:17:58;;;;;;;4.18;1.65;;;;;;;25.35;37.22;100014.75;10334301;28;20050;-79
2022/06/19 16:23:03;;;;;;;3.85;1.88;;;;;;;24.19;39.32;100016.28;10327602;28;20061;-78
2022/06/19 16:28:14;;;;;;;5.60;2.13;;;;;;;23.20;40.53;100013.03;10312137;28;20078;-80
2022/06/19 16:33:27;;;;;;;3.38;2.30;;;;;;;23.05;41.64;100023.38;10309852;28;20042;-78
2022/06/19 16:44:09;;;;;;;4.28;1.85;;;;;;;29.03;33.19;100046.75;10332194;28;20407;-77
2022/06/19 16:49:22;;;;;;;8.68;1.88;;;;;;;30.95;30.02;100029.94;10349527;28;20053;-78
2022/06/19 16:54:40;;;;;;;3.80;1.27;;;;;;;31.40;29.16;100043.22;10359590;28;20154;-76
2022/06/19 16:59:45;;;;;;;4.80;1.25;;;;;;;30.69;29.88;100054.72;10387218;28;20101;-77
2022/06/19 17:04:50;;;;;;;4.13;1.30;;;;;;;25.66;35.80;100067.03;10386727;28;20046;-79
2022/06/19 17:09:58;;;;;;;3.50;1.55;;;;;;;22.58;41.94;100055.47;10356095;28;20046;-77
2022/06/19 17:15:06;;;;;;;5.55;5.03;;;;;;;22.81;42.70;100000.25;10366463;28;20060;-77
2022/06/19 17:20:21;;;;;;;4.15;1.85;;;;;;;24.13;40.78;99966.94;10365611;28;21157;-79
2022/06/19 17:25:26;;;;;;;5.00;2.55;;;;;;;23.47;41.75;99925.19;10359058;28;20045;-77
2022/06/19 17:30:34;;;;;;;5.07;2.20;;;;;;;22.81;42.77;99915.38;10360027;28;20100;-77
2022/06/19 17:35:41;;;;;;;5.80;2.50;;;;;;;22.90;42.99;99946.09;10359158;28;20053;-77
2022/06/19 17:40:53;;;;;;;5.28;2.15;;;;;;;22.05;44.73;99933.19;10366688;28;20106;-79
2022/06/19 17:45:57;;;;;;;4.75;2.03;;;;;;;21.71;46.22;99930.59;10358021;28;20050;-79
2022/06/19 17:51:23;;;;;;;7.05;2.00;;;;;;;23.03;43.25;99967.13;10359953;28;20057;-79
2022/06/19 17:56:37;;;;;;;4.63;1.77;;;;;;;22.67;44.14;99996.69;10370891;28;20037;-78
2022/06/19 18:01:43;;;;;;;2.78;1.80;;;;;;;21.59;47.67;100015.94;10367316;28;20058;-79
2022/06/19 18:06:49;;;;;;;4.18;3.28;;;;;;;20.86;48.47;100017.44;10346502;28;20873;-78
2022/06/19 18:11:55;;;;;;;5.65;3.53;;;;;;;20.54;49.44;100033.38;10341275;28;20127;-79
2022/06/19 18:22:20;;;;;;;4.88;2.72;;;;;;;19.90;50.25;100024.19;10340027;28;20058;-78
2022/06/19 18:27:26;;;;;;;5.97;2.90;;;;;;;19.56;50.99;100035.78;10356999;28;20054;-80
2022/06/19 18:32:34;;;;;;;7.22;3.20;;;;;;;19.45;51.17;100063.47;10359188;28;20106;-78
2022/06/19 18:37:38;;;;;;;5.35;2.38;;;;;;;19.39;51.31;100050.59;10337713;28;20060;-78
2022/06/19 18:43:01;;;;;;;6.03;2.35;;;;;;;19.31;51.70;100032.53;10343733;28;20065;-79
2022/06/19 18:48:06;;;;;;;4.90;2.38;;;;;;;19.11;52.17;100050.44;10327803;28;20060;-81
2022/06/19 18:53:16;;;;;;;6.57;2.50;;;;;;;19.11;52.23;100053.16;10318048;28;20073;-80
2022/06/19 18:58:22;;;;;;;5.30;2.50;;;;;;;19.07;52.26;100054.59;10332413;28;20500;-80
2022/06/19 19:03:27;;;;;;;4.53;2.42;;;;;;;18.82;53.73;100054.88;10342173;28;20057;-80
2022/06/19 19:08:35;;;;;;;13.13;3.75;;;;;;;18.77;53.67;100077.16;10326382;28;20182;-80
2022/06/19 19:13:40;;;;;;;6.05;3.40;;;;;;;18.64;54.16;100076.09;10322737;28;20085;-80
2022/06/19 19:18:43;;;;;;;5.90;3.55;;;;;;;18.42;54.55;100091.41;10326377;28;20128;-80
2022/06/19 19:23:47;;;;;;;7.60;4.13;;;;;;;18.21;55.02;100094.81;10327954;28;20053;-80
2022/06/19 19:28:52;;;;;;;7.82;5.45;;;;;;;18.04;55.71;100080.47;10314031;28;20070;-81
2022/06/19 19:33:58;;;;;;;7.78;4.72;;;;;;;18.12;55.34;100083.16;10324380;28;20050;-79
2022/06/19 19:39:04;;;;;;;7.40;4.97;;;;;;;17.88;56.57;100097.69;10306777;28;20058;-80
2022/06/19 19:44:07;;;;;;;10.70;5.60;;;;;;;17.71;57.58;100118.69;10328361;28;20050;-81
2022/06/19 19:49:18;;;;;;;9.43;6.07;;;;;;;17.43;59.58;100148.16;10321409;28;20596;-79
2022/06/19 19:54:22;;;;;;;6.82;5.07;;;;;;;17.19;59.86;100197.94;10357473;28;20070;-80
2022/06/19 19:59:27;;;;;;;9.95;4.97;;;;;;;15.74;63.77;100282.28;10321494;28;20422;-77
2022/06/19 20:04:30;;;;;;;6.88;4.72;;;;;;;16.45;64.54;100230.44;10339657;28;20046;-78
2022/06/19 20:15:07;;;;;;;11.82;6.72;;;;;;;16.45;69.57;99985.63;10244158;28;20053;-78
2022/06/19 20:20:11;;;;;;;8.20;7.38;;;;;;;16.00;70.58;99884.91;10339158;28;20062;-78
2022/06/19 20:25:22;;;;;;;12.65;7.07;;;;;;;14.29;78.63;100209.53;10344276;28;20072;-79
2022/06/19 20:30:28;;;;;;;13.65;7.22;;;;;;;15.01;79.87;100127.41;10341330;28;20123;-79
2022/06/19 20:35:34;;;;;;;8.95;7.07;;;;;;;15.43;80.64;100129.34;10331069;28;20054;-78
2022/06/19 20:40:40;;;;;;;7.13;5.47;;;;;;;15.45;79.87;100081.31;10328836;28;20061;-80
2022/06/19 20:45:51;;;;;;;;;;;;;;;15.39;78.98;100138.81;10325288;28;20192;-80
2022/06/19 20:50:54;;;;;;;11.35;5.97;;;;;;;15.41;79.23;100114.28;10323122;28;19933;-79
2022/06/19 20:55:59;;;;;;;7.38;5.72;;;;;;;15.36;78.68;100082.31;10321354;28;24838;-80
2022/06/19 21:01:02;;;;;;;10.80;6.43;;;;;;;15.44;78.17;100095.88;10318160;28;20078;-79
2022/06/19 21:06:05;;;;;;;9.00;5.85;;;;;;;15.59;79.33;100081.69;10331078;28;20105;-80
2022/06/19 21:11:13;;;;;;;8.38;6.90;;;;;;;15.53;78.32;100082.38;10328455;28;20052;-79
2022/06/19 21:16:21;;;;;;;9.57;4.97;;;;;;;15.50;78.11;100091.66;10323238;28;20174;-80
2022/06/19 21:21:27;;;;;;;8.32;4.47;;;;;;;15.49;77.10;100117.00;10325316;28;20468;-79
2022/06/19 21:26:31;;;;;;;10.75;4.07;;;;;;;15.50;77.16;100113.31;10318464;28;20042;-80
2022/06/19 21:31:35;;;;;;;3.53;3.20;;;;;;;15.46;74.83;100111.94;10319436;28;20053;-78
2022/06/19 21:36:40;;;;;;;9.45;3.40;;;;;;;15.46;74.40;100090.28;10323772;28;20050;-79
2022/06/19 21:41:47;;;;;;;8.40;3.38;;;;;;;15.37;73.26;100093.97;10321713;28;20130;-79
2022/06/19 21:46:50;;;;;;;5.68;2.83;;;;;;;15.46;73.85;100092.97;10321216;28;20492;-80
2022/06/19 21:51:53;;;;;;;6.85;2.78;;;;;;;15.47;73.06;100108.22;10322364;28;20054;-78
2022/06/19 21:56:58;;;;;;;11.02;3.30;;;;;;;15.50;72.05;100147.66;10336725;28;20050;-80
2022/06/19 22:02:00;;;;;;;7.03;3.03;;;;;;;15.39;74.68;100165.03;10332557;28;20054;-79
2022/06/19 22:07:06;;;;;;;8.07;3.00;;;;;;;15.32;75.34;100109.81;10332512;28;20181;-80
2022/06/19 22:12:19;;;;;;;9.65;3.67;;;;;;;15.31;75.16;100084.63;10305042;28;20049;-79
2022/06/19 22:17:27;;;;;;;6.45;3.15;;;;;;;15.29;74.44;100080.38;10315731;28;20042;-79
2022/06/19 22:22:32;;;;;;;5.88;3.15;;;;;;;15.23;74.47;100090.00;10329039;28;20596;-79
2022/06/19 22:27:41;;;;;;;6.75;3.03;;;;;;;15.06;73.91;100045.78;10320609;28;20561;-79
2022/06/19 22:32:44;;;;;;;5.00;2.97;;;;;;;14.90;72.94;100094.38;10329375;28;20451;-79
2022/06/19 22:37:47;;;;;;;7.95;3.50;;;;;;;14.95;73.52;100102.84;10318602;28;20075;-79
2022/06/19 22:42:56;;;;;;;8.65;4.00;;;;;;;14.99;73.21;100104.22;10320689;28;20410;-79
2022/06/19 22:47:59;;;;;;;8.68;4.13;;;;;;;14.96;73.76;100120.78;10319303;28;20090;-80
2022/06/19 22:53:02;;;;;;;7.70;3.60;;;;;;;15.03;73.02;100157.84;10318044;28;20050;-79
2022/06/19 22:58:15;;;;;;;6.25;3.10;;;;;;;14.94;77.09;100156.06;10336947;28;20581;-79
2022/06/19 23:03:21;;;;;;;11.27;5.63;;;;;;;13.31;82.97;100216.38;10335999;28;20089;-81
2022/06/19 23:08:27;;;;;;;14.38;6.28;;;;;;;13.57;84.11;100020.44;10320766;28;20053;-81
2022/06/19 23:13:31;;;;;;;10.95;5.63;;;;;;;12.33;84.08;100145.56;10315981;28;20046;-80
2022/06/19 23:18:37;;;;;;;8.57;5.18;;;;;;;13.08;85.41;100134.94;10326920;28;20061;-79
2022/06/19 23:23:40;;;;;;;10.43;5.57;;;;;;;13.35;85.77;100175.44;10321632;28;20109;-79
2022/06/19 23:28:47;;;;;;;11.27;6.32;;;;;;;13.12;83.91;100234.28;10320720;28;20109;-80
2022/06/19 23:33:50;;;;;;;12.95;6.53;;;;;;;12.90;85.60;100262.41;10323788;28;20185;-80
2022/06/19 23:38:56;;;;;;;9.57;6.20;;;;;;;13.30;86.01;100253.28;10325310;28;20050;-80
2022/06/19 23:44:02;;;;;;;12.18;5.68;;;;;;;13.58;85.31;100243.44;10316857;28;20050;-81
2022/06/19 23:49:05;;;;;;;10.05;5.75;;;;;;;13.61;85.14;100226.13;10329974;28;20053;-81
2022/06/19 23:54:08;;;;;;;10.90;5.32;;;;;;;13.57;84.87;100168.88;10301809;28;20049;-81
2022/06/19 23:59:15;;;;;;;12.90;5.85;;;;;;;13.46;85.11;100126.72;10317882;28;20546;-80
